KRCA/RCA METAR and TAF weather

Enter ICAO airport designator
Station Type Date Time Source
KRCA METAR 2021/09/27 06:56 UTC NOAA

KRCA 270656Z AUTO 25007KT 10SM CLR 17/03 A2984 RMK AO2 SLP080 T01690025 403250123 $


Station Type Date Time Source
KRCA Decoded METAR 2021/09/27 06:56 UTC NOAA

Ellsworth Air Force Base, SD, United States (KRCA) 44-09N 103-06W
Sep 27, 2021 - 02:56 AM EDT / 2021.09.27 0656 UTC
Wind: from the WSW (250 degrees) at 8 MPH (7 KT):0
Visibility: 10 mile(s):0
Sky conditions: clear
Temperature: 62.4 F (16.9 C)
Dew Point: 36.5 F (2.5 C)
Relative Humidity: 37%
Pressure (altimeter): 29.84 in. Hg (1010 hPa)
ob: KRCA 270656Z AUTO 25007KT 10SM CLR 17/03 A2984 RMK AO2 SLP080 T01690025 403250123
cycle: 7

Station Type Date Time Source
KRCA TAF 2021/09/24 18:59 UTC NOAA

TAF
AMD KRCA 241845Z 2418/2517 35012KT 9999 SCT100 QNH3013INS
BECMG 2423/2424 VRB06KT 9999 FEW100 QNH2988INS TX20/2421Z TN08/2510Z LAST NO
AMDS AFT 2418 NEXT 2711

Example: see airport list